sensor_id;sensor_type;location;lat;lon;timestamp;temperature;humidity
46720;DHT22;32452;51.382;-0.002;2024-02-26T00:02:03;7.00;99.90
46720;DHT22;32452;51.382;-0.002;2024-02-26T00:04:49;7.00;99.90
46720;DHT22;32452;51.382;-0.002;2024-02-26T00:07:35;7.00;99.90
46720;DHT22;32452;51.382;-0.002;2024-02-26T00:10:22;7.00;99.90
46720;DHT22;32452;51.382;-0.002;2024-02-26T00:13:07;7.00;99.90
46720;DHT22;32452;51.382;-0.002;2024-02-26T00:15:53;7.00;99.90
46720;DHT22;32452;51.382;-0.002;2024-02-26T00:18:39;7.00;99.90
46720;DHT22;32452;51.382;-0.002;2024-02-26T00:21:24;7.00;99.90
46720;DHT22;32452;51.382;-0.002;2024-02-26T00:24:10;7.00;99.90
46720;DHT22;32452;51.382;-0.002;2024-02-26T00:26:56;7.00;99.90
46720;DHT22;32452;51.382;-0.002;2024-02-26T00:29:42;7.00;99.90
46720;DHT22;32452;51.382;-0.002;2024-02-26T00:32:28;7.00;99.90
46720;DHT22;32452;51.382;-0.002;2024-02-26T00:35:15;7.00;99.90
46720;DHT22;32452;51.382;-0.002;2024-02-26T00:38:02;7.00;99.90
46720;DHT22;32452;51.382;-0.002;2024-02-26T00:40:48;7.00;99.90
46720;DHT22;32452;51.382;-0.002;2024-02-26T00:43:34;7.00;99.90
46720;DHT22;32452;51.382;-0.002;2024-02-26T00:46:20;7.00;99.90
46720;DHT22;32452;51.382;-0.002;2024-02-26T00:49:05;7.00;99.90
46720;DHT22;32452;51.382;-0.002;2024-02-26T00:51:51;7.00;99.90
46720;DHT22;32452;51.382;-0.002;2024-02-26T00:54:36;7.00;99.90
46720;DHT22;32452;51.382;-0.002;2024-02-26T00:57:22;7.00;99.90
46720;DHT22;32452;51.382;-0.002;2024-02-26T01:00:08;7.00;99.90
46720;DHT22;32452;51.382;-0.002;2024-02-26T01:02:57;7.00;99.90
46720;DHT22;32452;51.382;-0.002;2024-02-26T01:05:48;7.00;99.90
46720;DHT22;32452;51.382;-0.002;2024-02-26T01:08:40;7.00;99.90
46720;DHT22;32452;51.382;-0.002;2024-02-26T01:11:30;7.00;99.90
46720;DHT22;32452;51.382;-0.002;2024-02-26T01:14:20;7.00;99.90
46720;DHT22;32452;51.382;-0.002;2024-02-26T01:17:08;7.00;99.90
46720;DHT22;32452;51.382;-0.002;2024-02-26T01:20:00;7.00;99.90
46720;DHT22;32452;51.382;-0.002;2024-02-26T01:22:49;7.00;99.90
46720;DHT22;32452;51.382;-0.002;2024-02-26T01:25:35;7.00;99.90
46720;DHT22;32452;51.382;-0.002;2024-02-26T01:28:22;7.00;99.90
46720;DHT22;32452;51.382;-0.002;2024-02-26T01:31:09;7.00;99.90
46720;DHT22;32452;51.382;-0.002;2024-02-26T01:33:55;7.00;99.90
46720;DHT22;32452;51.382;-0.002;2024-02-26T01:36:40;7.00;99.90
46720;DHT22;32452;51.382;-0.002;2024-02-26T01:39:26;7.00;99.90
46720;DHT22;32452;51.382;-0.002;2024-02-26T01:42:14;7.00;99.90
46720;DHT22;32452;51.382;-0.002;2024-02-26T01:44:59;7.00;99.90
46720;DHT22;32452;51.382;-0.002;2024-02-26T01:47:45;7.00;99.90
46720;DHT22;32452;51.382;-0.002;2024-02-26T01:50:32;7.00;99.90
46720;DHT22;32452;51.382;-0.002;2024-02-26T01:53:20;7.00;99.90
46720;DHT22;32452;51.382;-0.002;2024-02-26T01:56:07;7.00;99.90
46720;DHT22;32452;51.382;-0.002;2024-02-26T01:58:53;7.00;99.90
46720;DHT22;32452;51.382;-0.002;2024-02-26T02:01:39;7.00;99.90
46720;DHT22;32452;51.382;-0.002;2024-02-26T02:04:29;7.00;99.90
46720;DHT22;32452;51.382;-0.002;2024-02-26T02:07:15;7.00;99.90
46720;DHT22;32452;51.382;-0.002;2024-02-26T02:10:01;7.00;99.90
46720;DHT22;32452;51.382;-0.002;2024-02-26T02:12:48;7.00;99.90
46720;DHT22;32452;51.382;-0.002;2024-02-26T02:15:34;7.00;99.90
46720;DHT22;32452;51.382;-0.002;2024-02-26T02:18:19;7.00;99.90
46720;DHT22;32452;51.382;-0.002;2024-02-26T02:21:05;7.00;99.90
46720;DHT22;32452;51.382;-0.002;2024-02-26T02:23:50;7.00;99.90
46720;DHT22;32452;51.382;-0.002;2024-02-26T02:26:36;7.10;99.90
46720;DHT22;32452;51.382;-0.002;2024-02-26T02:29:21;7.00;99.90
46720;DHT22;32452;51.382;-0.002;2024-02-26T02:32:07;7.00;99.90
46720;DHT22;32452;51.382;-0.002;2024-02-26T02:34:53;7.00;99.90
46720;DHT22;32452;51.382;-0.002;2024-02-26T02:37:39;7.00;99.90
46720;DHT22;32452;51.382;-0.002;2024-02-26T02:40:24;7.00;99.90
46720;DHT22;32452;51.382;-0.002;2024-02-26T02:43:10;7.00;99.90
46720;DHT22;32452;51.382;-0.002;2024-02-26T02:45:56;7.00;99.90
46720;DHT22;32452;51.382;-0.002;2024-02-26T02:48:42;7.00;99.90
46720;DHT22;32452;51.382;-0.002;2024-02-26T02:51:29;7.00;99.90
46720;DHT22;32452;51.382;-0.002;2024-02-26T02:54:14;7.00;99.90
46720;DHT22;32452;51.382;-0.002;2024-02-26T02:57:00;7.10;99.90
46720;DHT22;32452;51.382;-0.002;2024-02-26T02:59:46;7.00;99.90
46720;DHT22;32452;51.382;-0.002;2024-02-26T03:02:31;7.00;99.90
46720;DHT22;32452;51.382;-0.002;2024-02-26T03:05:17;7.00;99.90
46720;DHT22;32452;51.382;-0.002;2024-02-26T03:08:04;7.00;99.90
46720;DHT22;32452;51.382;-0.002;2024-02-26T03:10:49;7.00;99.90
46720;DHT22;32452;51.382;-0.002;2024-02-26T03:13:35;7.00;99.90
46720;DHT22;32452;51.382;-0.002;2024-02-26T03:16:20;7.00;99.90
46720;DHT22;32452;51.382;-0.002;2024-02-26T03:19:06;7.00;99.90
46720;DHT22;32452;51.382;-0.002;2024-02-26T03:21:52;7.00;99.90
46720;DHT22;32452;51.382;-0.002;2024-02-26T03:24:38;7.00;99.90
46720;DHT22;32452;51.382;-0.002;2024-02-26T03:27:23;7.00;99.90
46720;DHT22;32452;51.382;-0.002;2024-02-26T03:30:10;7.00;99.90
46720;DHT22;32452;51.382;-0.002;2024-02-26T03:32:56;7.00;99.90
46720;DHT22;32452;51.382;-0.002;2024-02-26T03:35:41;7.00;99.90
46720;DHT22;32452;51.382;-0.002;2024-02-26T03:38:28;7.00;99.90
46720;DHT22;32452;51.382;-0.002;2024-02-26T03:41:14;7.00;99.90
46720;DHT22;32452;51.382;-0.002;2024-02-26T03:44:00;7.00;99.90
46720;DHT22;32452;51.382;-0.002;2024-02-26T03:46:45;7.00;99.90
46720;DHT22;32452;51.382;-0.002;2024-02-26T03:49:31;7.00;99.90
46720;DHT22;32452;51.382;-0.002;2024-02-26T03:52:16;7.00;99.90
46720;DHT22;32452;51.382;-0.002;2024-02-26T03:55:02;7.00;99.90
46720;DHT22;32452;51.382;-0.002;2024-02-26T03:57:48;7.00;99.90
46720;DHT22;32452;51.382;-0.002;2024-02-26T04:00:33;7.00;99.90
46720;DHT22;32452;51.382;-0.002;2024-02-26T04:03:19;6.90;99.90
46720;DHT22;32452;51.382;-0.002;2024-02-26T04:06:07;7.00;99.90
46720;DHT22;32452;51.382;-0.002;2024-02-26T04:08:53;7.00;99.90
46720;DHT22;32452;51.382;-0.002;2024-02-26T04:11:39;6.90;99.90
46720;DHT22;32452;51.382;-0.002;2024-02-26T04:14:25;6.90;99.90
46720;DHT22;32452;51.382;-0.002;2024-02-26T04:17:10;6.90;99.90
46720;DHT22;32452;51.382;-0.002;2024-02-26T04:19:56;6.90;99.90
46720;DHT22;32452;51.382;-0.002;2024-02-26T04:22:42;6.90;99.90
46720;DHT22;32452;51.382;-0.002;2024-02-26T04:25:27;6.90;99.90
46720;DHT22;32452;51.382;-0.002;2024-02-26T04:28:14;6.90;99.90
46720;DHT22;32452;51.382;-0.002;2024-02-26T04:31:00;6.90;99.90
46720;DHT22;32452;51.382;-0.002;2024-02-26T04:33:45;6.90;99.90
46720;DHT22;32452;51.382;-0.002;2024-02-26T04:36:31;6.90;99.90
46720;DHT22;32452;51.382;-0.002;2024-02-26T04:39:16;6.90;99.90
46720;DHT22;32452;51.382;-0.002;2024-02-26T04:42:02;6.90;99.90
46720;DHT22;32452;51.382;-0.002;2024-02-26T04:44:49;6.90;99.90
46720;DHT22;32452;51.382;-0.002;2024-02-26T04:47:35;6.80;99.90
46720;DHT22;32452;51.382;-0.002;2024-02-26T04:50:20;6.80;99.90
46720;DHT22;32452;51.382;-0.002;2024-02-26T04:53:06;6.80;99.90
46720;DHT22;32452;51.382;-0.002;2024-02-26T04:55:51;6.80;99.90
46720;DHT22;32452;51.382;-0.002;2024-02-26T04:58:37;6.80;99.90
46720;DHT22;32452;51.382;-0.002;2024-02-26T05:01:23;6.80;99.90
46720;DHT22;32452;51.382;-0.002;2024-02-26T05:04:08;6.80;99.90
46720;DHT22;32452;51.382;-0.002;2024-02-26T05:06:53;6.80;99.90
46720;DHT22;32452;51.382;-0.002;2024-02-26T05:09:40;6.80;99.90
46720;DHT22;32452;51.382;-0.002;2024-02-26T05:12:27;6.80;99.90
46720;DHT22;32452;51.382;-0.002;2024-02-26T05:15:13;6.80;99.90
46720;DHT22;32452;51.382;-0.002;2024-02-26T05:18:04;6.80;99.90
46720;DHT22;32452;51.382;-0.002;2024-02-26T05:20:50;6.80;99.90
46720;DHT22;32452;51.382;-0.002;2024-02-26T05:23:35;6.80;99.90
46720;DHT22;32452;51.382;-0.002;2024-02-26T05:26:22;6.80;99.90
46720;DHT22;32452;51.382;-0.002;2024-02-26T05:29:07;6.80;99.90
46720;DHT22;32452;51.382;-0.002;2024-02-26T05:31:53;6.70;99.90
46720;DHT22;32452;51.382;-0.002;2024-02-26T05:34:39;6.70;99.90
46720;DHT22;32452;51.382;-0.002;2024-02-26T05:37:26;6.70;99.90
46720;DHT22;32452;51.382;-0.002;2024-02-26T05:40:12;6.70;99.90
46720;DHT22;32452;51.382;-0.002;2024-02-26T05:42:58;6.70;99.90
46720;DHT22;32452;51.382;-0.002;2024-02-26T05:45:44;6.70;99.90
46720;DHT22;32452;51.382;-0.002;2024-02-26T05:48:29;6.70;99.90
46720;DHT22;32452;51.382;-0.002;2024-02-26T05:51:18;6.70;99.90
46720;DHT22;32452;51.382;-0.002;2024-02-26T05:54:04;6.70;99.90
46720;DHT22;32452;51.382;-0.002;2024-02-26T05:56:49;6.70;99.90
46720;DHT22;32452;51.382;-0.002;2024-02-26T05:59:35;6.70;99.90
46720;DHT22;32452;51.382;-0.002;2024-02-26T06:02:21;6.70;99.90
46720;DHT22;32452;51.382;-0.002;2024-02-26T06:05:06;6.70;99.90
46720;DHT22;32452;51.382;-0.002;2024-02-26T06:07:54;6.70;99.90
46720;DHT22;32452;51.382;-0.002;2024-02-26T06:10:40;6.70;99.90
46720;DHT22;32452;51.382;-0.002;2024-02-26T06:13:26;6.70;99.90
46720;DHT22;32452;51.382;-0.002;2024-02-26T06:16:11;6.60;99.90
46720;DHT22;32452;51.382;-0.002;2024-02-26T06:18:57;6.60;99.90
46720;DHT22;32452;51.382;-0.002;2024-02-26T06:21:43;6.60;99.90
46720;DHT22;32452;51.382;-0.002;2024-02-26T06:24:29;6.60;99.90
46720;DHT22;32452;51.382;-0.002;2024-02-26T06:27:14;6.60;99.90
46720;DHT22;32452;51.382;-0.002;2024-02-26T06:30:00;6.60;99.90
46720;DHT22;32452;51.382;-0.002;2024-02-26T06:32:46;6.60;99.90
46720;DHT22;32452;51.382;-0.002;2024-02-26T06:35:32;6.60;99.90
46720;DHT22;32452;51.382;-0.002;2024-02-26T06:38:17;6.60;99.90
46720;DHT22;32452;51.382;-0.002;2024-02-26T06:41:03;6.60;99.90
46720;DHT22;32452;51.382;-0.002;2024-02-26T06:43:49;6.50;99.90
46720;DHT22;32452;51.382;-0.002;2024-02-26T06:46:35;6.50;99.90
46720;DHT22;32452;51.382;-0.002;2024-02-26T06:49:20;6.50;99.90
46720;DHT22;32452;51.382;-0.002;2024-02-26T06:52:06;6.50;99.90
46720;DHT22;32452;51.382;-0.002;2024-02-26T06:54:52;6.50;99.90
46720;DHT22;32452;51.382;-0.002;2024-02-26T06:57:38;6.50;99.90
46720;DHT22;32452;51.382;-0.002;2024-02-26T07:00:23;6.50;99.90
46720;DHT22;32452;51.382;-0.002;2024-02-26T07:03:09;6.50;99.90
46720;DHT22;32452;51.382;-0.002;2024-02-26T07:05:54;6.50;99.90
46720;DHT22;32452;51.382;-0.002;2024-02-26T07:08:40;6.40;99.90
46720;DHT22;32452;51.382;-0.002;2024-02-26T07:11:26;6.40;99.90
46720;DHT22;32452;51.382;-0.002;2024-02-26T07:14:12;6.40;99.90
46720;DHT22;32452;51.382;-0.002;2024-02-26T07:16:58;6.40;99.90
46720;DHT22;32452;51.382;-0.002;2024-02-26T07:19:44;6.40;99.90
46720;DHT22;32452;51.382;-0.002;2024-02-26T07:22:29;6.40;99.90
46720;DHT22;32452;51.382;-0.002;2024-02-26T07:25:16;6.40;99.90
46720;DHT22;32452;51.382;-0.002;2024-02-26T07:28:01;6.40;99.90
46720;DHT22;32452;51.382;-0.002;2024-02-26T07:30:46;6.40;99.90
46720;DHT22;32452;51.382;-0.002;2024-02-26T07:33:32;6.40;99.90
46720;DHT22;32452;51.382;-0.002;2024-02-26T07:36:19;6.30;99.90
46720;DHT22;32452;51.382;-0.002;2024-02-26T07:39:05;6.30;99.90
46720;DHT22;32452;51.382;-0.002;2024-02-26T07:41:50;6.30;99.90
46720;DHT22;32452;51.382;-0.002;2024-02-26T07:44:38;6.40;99.90
46720;DHT22;32452;51.382;-0.002;2024-02-26T07:47:28;6.30;99.90
46720;DHT22;32452;51.382;-0.002;2024-02-26T07:50:15;6.30;99.90
46720;DHT22;32452;51.382;-0.002;2024-02-26T07:53:00;6.40;99.90
46720;DHT22;32452;51.382;-0.002;2024-02-26T07:55:46;6.40;99.90
46720;DHT22;32452;51.382;-0.002;2024-02-26T07:58:33;6.40;99.90
46720;DHT22;32452;51.382;-0.002;2024-02-26T08:01:18;6.40;99.90
46720;DHT22;32452;51.382;-0.002;2024-02-26T08:04:04;6.40;99.90
46720;DHT22;32452;51.382;-0.002;2024-02-26T08:06:50;6.40;99.90
46720;DHT22;32452;51.382;-0.002;2024-02-26T08:09:36;6.40;99.90
46720;DHT22;32452;51.382;-0.002;2024-02-26T08:12:21;6.40;99.90
46720;DHT22;32452;51.382;-0.002;2024-02-26T08:15:08;6.40;99.90
46720;DHT22;32452;51.382;-0.002;2024-02-26T08:17:55;6.50;99.90
46720;DHT22;32452;51.382;-0.002;2024-02-26T08:20:41;6.50;99.90
46720;DHT22;32452;51.382;-0.002;2024-02-26T08:23:27;6.50;99.90
46720;DHT22;32452;51.382;-0.002;2024-02-26T08:26:14;6.50;99.90
46720;DHT22;32452;51.382;-0.002;2024-02-26T08:29:01;6.50;99.90
46720;DHT22;32452;51.382;-0.002;2024-02-26T08:31:52;6.60;99.90
46720;DHT22;32452;51.382;-0.002;2024-02-26T08:34:40;6.60;99.90
46720;DHT22;32452;51.382;-0.002;2024-02-26T08:37:36;6.60;99.90
46720;DHT22;32452;51.382;-0.002;2024-02-26T08:40:26;6.70;99.90
46720;DHT22;32452;51.382;-0.002;2024-02-26T08:43:12;6.70;99.90
46720;DHT22;32452;51.382;-0.002;2024-02-26T08:46:04;6.70;99.90
46720;DHT22;32452;51.382;-0.002;2024-02-26T08:48:56;6.70;99.90
46720;DHT22;32452;51.382;-0.002;2024-02-26T08:51:42;6.80;99.90
46720;DHT22;32452;51.382;-0.002;2024-02-26T08:54:30;6.80;99.90
46720;DHT22;32452;51.382;-0.002;2024-02-26T08:57:16;6.80;99.90
46720;DHT22;32452;51.382;-0.002;2024-02-26T09:00:03;6.80;99.90
46720;DHT22;32452;51.382;-0.002;2024-02-26T09:02:49;6.80;99.90
46720;DHT22;32452;51.382;-0.002;2024-02-26T09:05:35;6.80;99.90
46720;DHT22;32452;51.382;-0.002;2024-02-26T09:08:21;6.80;99.90
46720;DHT22;32452;51.382;-0.002;2024-02-26T09:11:08;6.80;99.90
46720;DHT22;32452;51.382;-0.002;2024-02-26T09:13:56;6.80;99.90
46720;DHT22;32452;51.382;-0.002;2024-02-26T09:16:41;6.80;99.90
46720;DHT22;32452;51.382;-0.002;2024-02-26T09:19:27;6.80;99.90
46720;DHT22;32452;51.382;-0.002;2024-02-26T09:22:15;6.80;99.90
46720;DHT22;32452;51.382;-0.002;2024-02-26T09:25:04;6.90;99.90
46720;DHT22;32452;51.382;-0.002;2024-02-26T09:27:54;6.90;99.90
46720;DHT22;32452;51.382;-0.002;2024-02-26T09:30:39;6.90;99.90
46720;DHT22;32452;51.382;-0.002;2024-02-26T09:33:25;7.00;99.90
46720;DHT22;32452;51.382;-0.002;2024-02-26T09:36:11;6.90;99.90
46720;DHT22;32452;51.382;-0.002;2024-02-26T09:38:56;6.90;99.90
46720;DHT22;32452;51.382;-0.002;2024-02-26T09:41:46;7.00;99.90
46720;DHT22;32452;51.382;-0.002;2024-02-26T09:44:36;7.00;99.90
46720;DHT22;32452;51.382;-0.002;2024-02-26T09:47:26;7.00;99.90
46720;DHT22;32452;51.382;-0.002;2024-02-26T09:50:14;7.00;99.90
46720;DHT22;32452;51.382;-0.002;2024-02-26T09:53:04;7.00;99.90
46720;DHT22;32452;51.382;-0.002;2024-02-26T09:55:51;7.10;99.90
46720;DHT22;32452;51.382;-0.002;2024-02-26T09:58:39;7.10;99.90
46720;DHT22;32452;51.382;-0.002;2024-02-26T10:01:31;7.10;99.90
46720;DHT22;32452;51.382;-0.002;2024-02-26T10:04:42;7.10;99.90
46720;DHT22;32452;51.382;-0.002;2024-02-26T10:07:35;7.20;99.90
46720;DHT22;32452;51.382;-0.002;2024-02-26T10:10:22;7.20;99.90
46720;DHT22;32452;51.382;-0.002;2024-02-26T10:13:08;7.20;99.90
46720;DHT22;32452;51.382;-0.002;2024-02-26T10:15:55;7.30;99.90
46720;DHT22;32452;51.382;-0.002;2024-02-26T10:18:52;7.30;99.90
46720;DHT22;32452;51.382;-0.002;2024-02-26T10:21:47;7.30;99.90
46720;DHT22;32452;51.382;-0.002;2024-02-26T10:24:33;7.30;99.90
46720;DHT22;32452;51.382;-0.002;2024-02-26T10:27:21;7.30;99.90
46720;DHT22;32452;51.382;-0.002;2024-02-26T10:30:16;7.40;99.90
46720;DHT22;32452;51.382;-0.002;2024-02-26T10:33:07;7.40;99.90
46720;DHT22;32452;51.382;-0.002;2024-02-26T10:35:54;7.40;99.90
46720;DHT22;32452;51.382;-0.002;2024-02-26T10:38:39;7.40;99.90
46720;DHT22;32452;51.382;-0.002;2024-02-26T10:41:25;7.40;99.90
46720;DHT22;32452;51.382;-0.002;2024-02-26T10:44:11;7.40;99.90
46720;DHT22;32452;51.382;-0.002;2024-02-26T10:47:03;7.50;99.90
46720;DHT22;32452;51.382;-0.002;2024-02-26T10:49:50;7.40;99.90
46720;DHT22;32452;51.382;-0.002;2024-02-26T10:52:36;7.40;99.90
46720;DHT22;32452;51.382;-0.002;2024-02-26T10:55:22;7.40;99.90
46720;DHT22;32452;51.382;-0.002;2024-02-26T10:58:09;7.30;99.90
46720;DHT22;32452;51.382;-0.002;2024-02-26T11:00:56;7.40;99.90
46720;DHT22;32452;51.382;-0.002;2024-02-26T11:03:43;7.30;99.90
46720;DHT22;32452;51.382;-0.002;2024-02-26T11:06:29;7.30;99.90
46720;DHT22;32452;51.382;-0.002;2024-02-26T11:09:16;7.30;99.90
46720;DHT22;32452;51.382;-0.002;2024-02-26T11:12:03;7.30;99.90
46720;DHT22;32452;51.382;-0.002;2024-02-26T11:14:56;7.30;99.90
46720;DHT22;32452;51.382;-0.002;2024-02-26T11:17:44;7.30;99.90
46720;DHT22;32452;51.382;-0.002;2024-02-26T11:20:32;7.30;99.90
46720;DHT22;32452;51.382;-0.002;2024-02-26T11:23:19;7.30;99.90
46720;DHT22;32452;51.382;-0.002;2024-02-26T11:26:05;7.40;99.90
46720;DHT22;32452;51.382;-0.002;2024-02-26T11:28:52;7.40;99.90
46720;DHT22;32452;51.382;-0.002;2024-02-26T11:31:39;7.40;99.90
46720;DHT22;32452;51.382;-0.002;2024-02-26T11:34:25;7.40;99.90
46720;DHT22;32452;51.382;-0.002;2024-02-26T11:37:12;7.40;99.90
46720;DHT22;32452;51.382;-0.002;2024-02-26T11:40:01;7.50;99.90
46720;DHT22;32452;51.382;-0.002;2024-02-26T11:42:47;7.50;99.90
46720;DHT22;32452;51.382;-0.002;2024-02-26T11:48:25;7.60;99.90
46720;DHT22;32452;51.382;-0.002;2024-02-26T11:51:13;7.60;99.90
46720;DHT22;32452;51.382;-0.002;2024-02-26T11:54:00;7.60;99.90
46720;DHT22;32452;51.382;-0.002;2024-02-26T11:56:45;7.60;99.90
46720;DHT22;32452;51.382;-0.002;2024-02-26T11:59:38;7.60;99.90
46720;DHT22;32452;51.382;-0.002;2024-02-26T12:05:33;7.60;99.90
46720;DHT22;32452;51.382;-0.002;2024-02-26T12:08:21;7.60;99.90
46720;DHT22;32452;51.382;-0.002;2024-02-26T12:11:14;7.60;99.90
46720;DHT22;32452;51.382;-0.002;2024-02-26T12:14:00;7.70;99.90
46720;DHT22;32452;51.382;-0.002;2024-02-26T12:16:47;7.70;99.90
46720;DHT22;32452;51.382;-0.002;2024-02-26T12:19:36;7.70;99.90
46720;DHT22;32452;51.382;-0.002;2024-02-26T12:22:25;7.80;99.90
46720;DHT22;32452;51.382;-0.002;2024-02-26T12:25:13;7.80;99.90
46720;DHT22;32452;51.382;-0.002;2024-02-26T12:27:59;7.90;99.90
46720;DHT22;32452;51.382;-0.002;2024-02-26T12:30:45;7.90;99.90
46720;DHT22;32452;51.382;-0.002;2024-02-26T12:33:32;8.00;99.90
46720;DHT22;32452;51.382;-0.002;2024-02-26T12:36:18;8.10;99.90
46720;DHT22;32452;51.382;-0.002;2024-02-26T12:39:03;8.20;99.90
46720;DHT22;32452;51.382;-0.002;2024-02-26T12:41:52;8.20;99.90
46720;DHT22;32452;51.382;-0.002;2024-02-26T12:44:38;8.30;99.90
46720;DHT22;32452;51.382;-0.002;2024-02-26T12:47:24;8.30;99.90
46720;DHT22;32452;51.382;-0.002;2024-02-26T12:50:10;8.30;99.90
46720;DHT22;32452;51.382;-0.002;2024-02-26T12:52:56;8.20;99.90
46720;DHT22;32452;51.382;-0.002;2024-02-26T12:55:42;8.20;99.90
46720;DHT22;32452;51.382;-0.002;2024-02-26T12:58:29;8.20;99.90
46720;DHT22;32452;51.382;-0.002;2024-02-26T13:01:18;8.20;99.90
46720;DHT22;32452;51.382;-0.002;2024-02-26T13:04:05;8.20;99.90
46720;DHT22;32452;51.382;-0.002;2024-02-26T13:06:55;8.20;99.90
46720;DHT22;32452;51.382;-0.002;2024-02-26T13:09:47;8.30;99.90
46720;DHT22;32452;51.382;-0.002;2024-02-26T13:12:32;8.30;99.90
46720;DHT22;32452;51.382;-0.002;2024-02-26T13:15:21;8.40;99.90
46720;DHT22;32452;51.382;-0.002;2024-02-26T13:18:12;8.50;99.90
46720;DHT22;32452;51.382;-0.002;2024-02-26T13:21:13;8.40;99.90
46720;DHT22;32452;51.382;-0.002;2024-02-26T13:23:59;8.40;99.90
46720;DHT22;32452;51.382;-0.002;2024-02-26T13:26:45;8.40;99.90
46720;DHT22;32452;51.382;-0.002;2024-02-26T13:29:31;8.50;99.90
46720;DHT22;32452;51.382;-0.002;2024-02-26T13:32:16;8.50;99.90
46720;DHT22;32452;51.382;-0.002;2024-02-26T13:35:10;8.50;99.90
46720;DHT22;32452;51.382;-0.002;2024-02-26T13:37:56;8.60;99.70
46720;DHT22;32452;51.382;-0.002;2024-02-26T13:40:42;8.60;99.50
46720;DHT22;32452;51.382;-0.002;2024-02-26T13:43:27;8.60;99.30
46720;DHT22;32452;51.382;-0.002;2024-02-26T13:46:14;8.70;98.90
46720;DHT22;32452;51.382;-0.002;2024-02-26T13:49:00;8.70;98.90
46720;DHT22;32452;51.382;-0.002;2024-02-26T13:51:46;8.80;98.80
46720;DHT22;32452;51.382;-0.002;2024-02-26T13:54:35;9.00;98.60
46720;DHT22;32452;51.382;-0.002;2024-02-26T13:57:24;9.10;98.50
46720;DHT22;32452;51.382;-0.002;2024-02-26T14:00:13;9.20;98.50
46720;DHT22;32452;51.382;-0.002;2024-02-26T14:03:00;9.30;98.20
46720;DHT22;32452;51.382;-0.002;2024-02-26T14:05:46;9.40;98.10
46720;DHT22;32452;51.382;-0.002;2024-02-26T14:08:33;9.40;97.80
46720;DHT22;32452;51.382;-0.002;2024-02-26T14:11:19;9.40;97.50
46720;DHT22;32452;51.382;-0.002;2024-02-26T14:14:04;9.30;97.30
46720;DHT22;32452;51.382;-0.002;2024-02-26T14:16:50;9.30;97.00
46720;DHT22;32452;51.382;-0.002;2024-02-26T14:19:36;9.30;97.00
46720;DHT22;32452;51.382;-0.002;2024-02-26T14:22:23;9.40;96.80
46720;DHT22;32452;51.382;-0.002;2024-02-26T14:25:09;9.50;96.60
46720;DHT22;32452;51.382;-0.002;2024-02-26T14:27:55;9.40;96.40
46720;DHT22;32452;51.382;-0.002;2024-02-26T14:30:40;9.40;96.30
46720;DHT22;32452;51.382;-0.002;2024-02-26T14:33:26;9.30;96.30
46720;DHT22;32452;51.382;-0.002;2024-02-26T14:36:12;9.30;96.30
46720;DHT22;32452;51.382;-0.002;2024-02-26T14:38:58;9.30;96.20
46720;DHT22;32452;51.382;-0.002;2024-02-26T14:41:43;9.40;96.10
46720;DHT22;32452;51.382;-0.002;2024-02-26T14:44:29;9.50;96.10
46720;DHT22;32452;51.382;-0.002;2024-02-26T14:47:14;9.60;96.00
46720;DHT22;32452;51.382;-0.002;2024-02-26T14:50:01;9.60;95.70
46720;DHT22;32452;51.382;-0.002;2024-02-26T14:52:47;9.60;95.60
46720;DHT22;32452;51.382;-0.002;2024-02-26T14:55:33;9.50;95.50
46720;DHT22;32452;51.382;-0.002;2024-02-26T14:58:19;9.40;95.50
46720;DHT22;32452;51.382;-0.002;2024-02-26T15:01:05;9.30;95.60
46720;DHT22;32452;51.382;-0.002;2024-02-26T15:03:51;9.30;95.70
46720;DHT22;32452;51.382;-0.002;2024-02-26T15:06:38;9.30;95.60
46720;DHT22;32452;51.382;-0.002;2024-02-26T15:09:24;9.20;95.50
46720;DHT22;32452;51.382;-0.002;2024-02-26T15:12:10;9.30;95.60
46720;DHT22;32452;51.382;-0.002;2024-02-26T15:14:56;9.40;95.50
46720;DHT22;32452;51.382;-0.002;2024-02-26T15:17:42;9.50;95.20
46720;DHT22;32452;51.382;-0.002;2024-02-26T15:20:28;9.50;94.90
46720;DHT22;32452;51.382;-0.002;2024-02-26T15:23:14;9.50;94.60
46720;DHT22;32452;51.382;-0.002;2024-02-26T15:25:59;9.40;94.30
46720;DHT22;32452;51.382;-0.002;2024-02-26T15:28:45;9.30;94.20
46720;DHT22;32452;51.382;-0.002;2024-02-26T15:31:31;9.30;94.10
46720;DHT22;32452;51.382;-0.002;2024-02-26T15:34:17;9.30;94.20
46720;DHT22;32452;51.382;-0.002;2024-02-26T15:37:03;9.20;94.20
46720;DHT22;32452;51.382;-0.002;2024-02-26T15:39:48;9.20;94.20
46720;DHT22;32452;51.382;-0.002;2024-02-26T15:42:33;9.20;94.20
46720;DHT22;32452;51.382;-0.002;2024-02-26T15:45:19;9.10;94.30
46720;DHT22;32452;51.382;-0.002;2024-02-26T15:48:06;9.10;94.40
46720;DHT22;32452;51.382;-0.002;2024-02-26T15:50:52;9.10;94.30
46720;DHT22;32452;51.382;-0.002;2024-02-26T15:53:37;9.10;94.20
46720;DHT22;32452;51.382;-0.002;2024-02-26T15:56:24;9.00;94.10
46720;DHT22;32452;51.382;-0.002;2024-02-26T15:59:10;9.00;93.90
46720;DHT22;32452;51.382;-0.002;2024-02-26T16:01:56;9.00;93.80
46720;DHT22;32452;51.382;-0.002;2024-02-26T16:04:41;8.90;93.80
46720;DHT22;32452;51.382;-0.002;2024-02-26T16:07:35;8.90;93.70
46720;DHT22;32452;51.382;-0.002;2024-02-26T16:10:21;8.90;93.70
46720;DHT22;32452;51.382;-0.002;2024-02-26T16:13:07;8.80;93.80
46720;DHT22;32452;51.382;-0.002;2024-02-26T16:16:10;8.80;93.70
46720;DHT22;32452;51.382;-0.002;2024-02-26T16:19:06;8.80;93.40
46720;DHT22;32452;51.382;-0.002;2024-02-26T16:21:53;8.70;93.20
46720;DHT22;32452;51.382;-0.002;2024-02-26T16:24:38;8.70;93.20
46720;DHT22;32452;51.382;-0.002;2024-02-26T16:27:24;8.70;93.20
46720;DHT22;32452;51.382;-0.002;2024-02-26T16:30:10;8.70;93.00
46720;DHT22;32452;51.382;-0.002;2024-02-26T16:32:56;8.70;92.90
46720;DHT22;32452;51.382;-0.002;2024-02-26T16:35:43;8.60;92.90
46720;DHT22;32452;51.382;-0.002;2024-02-26T16:38:29;8.60;92.90
46720;DHT22;32452;51.382;-0.002;2024-02-26T16:41:14;8.60;93.00
46720;DHT22;32452;51.382;-0.002;2024-02-26T16:44:00;8.60;92.90
46720;DHT22;32452;51.382;-0.002;2024-02-26T16:46:46;8.60;92.90
46720;DHT22;32452;51.382;-0.002;2024-02-26T16:49:32;8.60;92.70
46720;DHT22;32452;51.382;-0.002;2024-02-26T16:52:19;8.60;92.60
46720;DHT22;32452;51.382;-0.002;2024-02-26T16:55:04;8.50;92.60
46720;DHT22;32452;51.382;-0.002;2024-02-26T16:57:51;8.60;92.60
46720;DHT22;32452;51.382;-0.002;2024-02-26T17:00:36;8.60;92.60
46720;DHT22;32452;51.382;-0.002;2024-02-26T17:03:22;8.50;92.60
46720;DHT22;32452;51.382;-0.002;2024-02-26T17:06:07;8.50;92.60
46720;DHT22;32452;51.382;-0.002;2024-02-26T17:08:53;8.50;92.50
46720;DHT22;32452;51.382;-0.002;2024-02-26T17:11:39;8.50;92.40
46720;DHT22;32452;51.382;-0.002;2024-02-26T17:14:25;8.40;92.30
46720;DHT22;32452;51.382;-0.002;2024-02-26T17:17:12;8.30;92.20
46720;DHT22;32452;51.382;-0.002;2024-02-26T17:19:57;8.30;92.20
46720;DHT22;32452;51.382;-0.002;2024-02-26T17:22:43;8.20;92.20
46720;DHT22;32452;51.382;-0.002;2024-02-26T17:25:28;8.20;92.10
46720;DHT22;32452;51.382;-0.002;2024-02-26T17:28:14;8.10;92.10
46720;DHT22;32452;51.382;-0.002;2024-02-26T17:31:00;8.00;92.10
46720;DHT22;32452;51.382;-0.002;2024-02-26T17:33:46;8.00;92.20
46720;DHT22;32452;51.382;-0.002;2024-02-26T17:36:32;7.90;92.20
46720;DHT22;32452;51.382;-0.002;2024-02-26T17:39:18;7.80;92.30